Time;durP1;ratioP1;P1;durP2;ratioP2;P2;SDS_P1;SDS_P2;PMS_P1;PMS_P2;Temp;Humidity;BMP_temperature;BMP_pressure;BME280_temperature;BME280_humidity;BME280_pressure;Samples;Min_cycle;Max_cycle;Signal;HPM_P1;HPM_P2
2023/06/03 00:01:54;;;;;;;11.60;8.40;;;19.30;99.90;;;;;;5033609;28;20040;-52
2023/06/03 00:04:29;;;;;;;16.85;11.40;;;19.30;99.90;;;;;;5033332;28;20497;-53
2023/06/03 00:06:58;;;;;;;11.02;9.45;;;19.30;99.90;;;;;;5033790;28;20453;-52
2023/06/03 00:09:25;;;;;;;10.88;8.73;;;19.30;99.90;;;;;;5033349;28;20029;-54
2023/06/03 00:11:51;;;;;;;9.00;7.25;;;19.30;99.90;;;;;;5030770;28;20109;-53
2023/06/03 00:14:17;;;;;;;9.65;7.20;;;19.40;99.90;;;;;;5033210;28;20053;-52
2023/06/03 00:16:46;;;;;;;11.18;7.50;;;19.40;99.90;;;;;;5033366;28;20460;-53
2023/06/03 00:19:14;;;;;;;8.40;6.68;;;19.40;99.90;;;;;;5031583;28;20584;-52
2023/06/03 00:21:49;;;;;;;9.02;6.90;;;19.40;99.90;;;;;;5033089;28;20044;-53
2023/06/03 00:24:22;;;;;;;9.80;6.97;;;19.40;99.90;;;;;;5033367;28;20029;-52
2023/06/03 00:26:52;;;;;;;10.15;7.03;;;19.50;99.90;;;;;;5032961;28;20045;-52
2023/06/03 00:29:20;;;;;;;8.73;6.57;;;19.60;99.90;;;;;;5033290;28;20033;-53
2023/06/03 00:31:47;;;;;;;8.88;6.80;;;19.60;99.90;;;;;;5032700;28;20056;-52
2023/06/03 00:34:13;;;;;;;11.43;7.40;;;19.60;99.90;;;;;;5033591;28;20030;-52
2023/06/03 00:36:39;;;;;;;10.32;7.80;;;19.60;99.90;;;;;;5033202;28;20034;-53
2023/06/03 00:39:05;;;;;;;9.43;6.93;;;19.40;99.90;;;;;;5033172;28;20127;-52
2023/06/03 00:41:31;;;;;;;11.90;7.75;;;19.30;99.90;;;;;;5032956;28;20484;-52
2023/06/03 00:43:56;;;;;;;10.00;7.85;;;19.30;99.90;;;;;;5034964;28;20065;-50
2023/06/03 00:46:22;;;;;;;12.15;7.65;;;19.30;99.90;;;;;;5035166;28;20057;-51
2023/06/03 00:48:50;;;;;;;9.73;7.50;;;19.30;99.90;;;;;;5037316;28;20380;-51
2023/06/03 00:51:16;;;;;;;10.27;7.70;;;19.30;99.90;;;;;;5037030;28;20033;-55
2023/06/03 00:53:43;;;;;;;8.95;6.72;;;19.30;99.90;;;;;;5036855;28;20033;-52
2023/06/03 00:56:09;;;;;;;9.90;7.45;;;19.30;99.90;;;;;;5037254;28;20043;-52
2023/06/03 00:58:35;;;;;;;9.63;7.10;;;19.40;99.90;;;;;;5036865;28;20026;-49
2023/06/03 01:01:00;;;;;;;9.48;6.85;;;19.30;99.90;;;;;;5036494;28;20421;-52
2023/06/03 01:03:26;;;;;;;9.38;7.38;;;19.30;99.90;;;;;;5036372;28;20095;-50
2023/06/03 01:06:01;;;;;;;13.60;6.93;;;19.40;99.90;;;;;;5036621;28;20037;-51
2023/06/03 01:08:33;;;;;;;9.40;7.43;;;19.40;99.90;;;;;;5002086;28;20448;-52
2023/06/03 01:11:07;;;;;;;;;;;19.50;99.90;;;;;;5036837;28;20397;-53
2023/06/03 01:14:03;;;;;;;8.68;6.57;;;19.40;99.90;;;;;;5036970;28;19909;-52
2023/06/03 01:16:32;;;;;;;9.10;6.82;;;19.30;99.90;;;;;;5036285;28;20034;-50
2023/06/03 01:19:00;;;;;;;9.20;7.32;;;19.20;99.90;;;;;;5036288;28;20082;-52
2023/06/03 01:21:34;;;;;;;10.93;7.47;;;19.10;99.90;;;;;;5036398;28;20407;-50
2023/06/03 01:23:59;;;;;;;8.95;7.32;;;19.30;99.90;;;;;;5036324;28;20067;-52
2023/06/03 01:26:28;;;;;;;8.65;7.07;;;19.30;99.90;;;;;;5036001;28;20025;-50
2023/06/03 01:28:54;;;;;;;10.13;7.60;;;19.40;99.90;;;;;;4986373;28;20128;-51
2023/06/03 01:31:20;;;;;;;9.77;7.50;;;19.30;99.90;;;;;;5036445;28;20163;-52
2023/06/03 01:33:46;;;;;;;11.52;7.50;;;19.30;99.90;;;;;;5036001;28;20060;-51
2023/06/03 01:36:13;;;;;;;9.70;7.43;;;19.30;99.90;;;;;;5036543;28;20033;-52
2023/06/03 01:38:39;;;;;;;10.43;8.00;;;19.40;99.90;;;;;;5036159;28;20771;-51
2023/06/03 01:41:05;;;;;;;10.10;7.40;;;19.50;99.90;;;;;;5000812;28;20553;-52
2023/06/03 01:43:31;;;;;;;9.18;7.47;;;19.50;99.90;;;;;;5034143;28;20149;-51
2023/06/03 01:45:57;;;;;;;9.68;8.05;;;19.40;99.90;;;;;;5035928;28;20112;-51
2023/06/03 01:48:23;;;;;;;11.18;7.78;;;19.30;99.90;;;;;;5035839;28;20025;-52
2023/06/03 01:50:50;;;;;;;10.18;7.45;;;19.30;99.90;;;;;;5035678;28;20030;-50
2023/06/03 01:53:16;;;;;;;11.50;8.50;;;19.20;99.90;;;;;;5036087;28;20116;-52
2023/06/03 01:55:42;;;;;;;11.93;8.23;;;19.10;99.90;;;;;;5035313;28;20029;-52
2023/06/03 01:58:08;;;;;;;9.82;7.63;;;19.20;99.90;;;;;;5035822;28;20560;-51
2023/06/03 02:00:33;;;;;;;15.07;8.18;;;19.20;99.90;;;;;;5035600;28;20057;-50
2023/06/03 02:02:59;;;;;;;12.35;9.30;;;19.30;99.90;;;;;;5035520;28;20049;-50
2023/06/03 02:05:25;;;;;;;13.98;9.15;;;19.40;99.90;;;;;;5035256;28;20095;-51
2023/06/03 02:07:50;;;;;;;13.90;9.30;;;19.30;99.90;;;;;;5035477;28;20091;-52
2023/06/03 02:10:16;;;;;;;15.32;9.55;;;19.30;99.90;;;;;;5035319;28;20041;-52
2023/06/03 02:12:42;;;;;;;12.32;8.50;;;19.30;99.90;;;;;;5035328;28;20057;-50
2023/06/03 02:15:08;;;;;;;14.68;9.38;;;19.40;99.90;;;;;;5035496;28;20120;-49
2023/06/03 02:17:34;;;;;;;12.55;9.60;;;19.40;99.90;;;;;;4968234;28;20041;-52
2023/06/03 02:20:00;;;;;;;14.30;9.88;;;19.40;99.90;;;;;;5035139;28;20044;-51
2023/06/03 02:22:26;;;;;;;15.10;10.32;;;19.50;99.90;;;;;;5035240;28;20104;-52
2023/06/03 02:24:53;;;;;;;13.57;10.07;;;19.50;99.90;;;;;;5035292;28;20479;-50
2023/06/03 02:27:24;;;;;;;13.07;9.88;;;19.50;99.90;;;;;;4974035;28;20134;-50
2023/06/03 02:29:51;;;;;;;13.82;10.30;;;19.50;99.90;;;;;;4974175;28;20125;-51
2023/06/03 02:32:18;;;;;;;12.85;9.57;;;19.50;99.90;;;;;;4925760;28;20038;-51
2023/06/03 02:34:45;;;;;;;13.90;10.13;;;19.50;99.90;;;;;;4973985;28;20053;-49
2023/06/03 02:37:11;;;;;;;14.60;9.32;;;19.50;99.90;;;;;;4973990;28;20046;-50
2023/06/03 02:39:38;;;;;;;13.70;9.25;;;19.60;99.90;;;;;;4973897;28;20035;-51
2023/06/03 02:42:04;;;;;;;14.10;9.68;;;19.60;99.90;;;;;;4973722;28;20047;-50
2023/06/03 02:44:30;;;;;;;14.20;10.05;;;19.60;99.90;;;;;;4973855;28;20039;-51
2023/06/03 02:46:55;;;;;;;17.02;8.82;;;19.60;99.90;;;;;;4925594;28;20121;-52
2023/06/03 02:49:21;;;;;;;12.82;9.57;;;19.60;99.90;;;;;;4973769;28;20041;-51
2023/06/03 02:51:47;;;;;;;11.52;8.25;;;19.60;99.90;;;;;;4973548;28;20067;-49
2023/06/03 02:54:12;;;;;;;13.27;9.32;;;19.50;99.90;;;;;;4973530;28;20475;-52
2023/06/03 02:56:38;;;;;;;11.82;7.95;;;19.50;99.90;;;;;;4973564;28;20074;-52
2023/06/03 02:59:05;;;;;;;11.43;8.80;;;19.50;99.90;;;;;;5009645;28;20124;-52
2023/06/03 03:01:31;;;;;;;10.95;8.45;;;19.40;99.90;;;;;;5034203;28;20054;-51
2023/06/03 03:03:57;;;;;;;12.00;8.65;;;19.40;99.90;;;;;;5034278;28;20080;-50
2023/06/03 03:06:24;;;;;;;9.75;8.30;;;19.40;99.90;;;;;;5033602;28;20083;-51
2023/06/03 03:08:51;;;;;;;9.77;7.72;;;19.40;99.90;;;;;;5034233;28;20095;-52
2023/06/03 03:11:17;;;;;;;9.38;8.02;;;19.40;99.90;;;;;;5034235;28;20481;-52
2023/06/03 03:13:44;;;;;;;10.20;8.45;;;19.30;99.90;;;;;;4999410;28;20061;-52
2023/06/03 03:16:10;;;;;;;10.30;7.40;;;19.30;99.90;;;;;;5034247;28;20076;-49
2023/06/03 03:18:40;;;;;;;9.57;7.90;;;19.30;99.90;;;;;;5033860;28;20029;-52
2023/06/03 03:21:06;;;;;;;10.88;8.13;;;19.30;99.90;;;;;;5034071;28;20075;-50
2023/06/03 03:23:32;;;;;;;9.57;8.05;;;19.30;99.90;;;;;;5033965;28;20029;-53
2023/06/03 03:26:00;;;;;;;10.63;8.43;;;19.40;99.90;;;;;;5033656;28;20377;-50
2023/06/03 03:28:26;;;;;;;12.35;8.85;;;19.30;99.90;;;;;;5033847;28;20033;-50
2023/06/03 03:30:55;;;;;;;13.10;8.07;;;19.30;99.90;;;;;;5033955;28;20048;-51
2023/06/03 03:33:21;;;;;;;9.38;7.88;;;19.30;99.90;;;;;;5033671;28;20041;-50
2023/06/03 03:35:49;;;;;;;10.38;8.40;;;19.40;99.90;;;;;;5033885;28;20037;-50
2023/06/03 03:38:15;;;;;;;13.80;8.23;;;19.30;99.90;;;;;;5016348;28;20504;-52
2023/06/03 03:40:41;;;;;;;11.77;8.05;;;19.10;99.90;;;;;;5030446;28;20038;-50
2023/06/03 03:43:26;;;;;;;10.00;8.38;;;19.10;99.90;;;;;;5033659;28;20041;-50
2023/06/03 03:45:52;;;;;;;10.73;8.70;;;19.20;99.90;;;;;;4998876;28;20049;-52
2023/06/03 03:48:21;;;;;;;11.35;8.82;;;19.30;99.90;;;;;;5033920;28;20040;-52
2023/06/03 03:50:52;;;;;;;13.02;7.95;;;19.30;99.90;;;;;;5015559;28;20037;-52
2023/06/03 03:53:21;;;;;;;11.05;8.48;;;19.30;99.90;;;;;;5015245;28;20029;-52
2023/06/03 03:55:54;;;;;;;11.45;9.02;;;19.30;99.90;;;;;;5033230;28;20431;-52
2023/06/03 03:58:36;;;;;;;12.80;9.38;;;19.30;99.90;;;;;;5033275;28;20041;-53
2023/06/03 04:01:18;;;;;;;14.07;10.02;;;19.30;99.90;;;;;;5033282;28;20042;-51
2023/06/03 04:03:46;;;;;;;11.55;9.20;;;19.20;99.90;;;;;;5033257;28;20045;-52
2023/06/03 04:06:14;;;;;;;12.43;9.23;;;19.30;99.90;;;;;;5033303;28;20087;-51
2023/06/03 04:08:43;;;;;;;22.75;10.90;;;19.30;99.90;;;;;;5032837;28;20177;-51
2023/06/03 04:11:14;;;;;;;22.40;11.05;;;19.30;99.90;;;;;;5033472;28;20037;-53
2023/06/03 04:13:43;;;;;;;16.15;10.05;;;19.40;99.90;;;;;;5033092;28;20079;-52
2023/06/03 04:16:11;;;;;;;12.57;9.68;;;19.40;99.90;;;;;;5033234;28;20377;-52
2023/06/03 04:18:41;;;;;;;15.20;10.52;;;19.50;99.90;;;;;;5032976;28;20094;-52
2023/06/03 04:21:17;;;;;;;12.63;9.65;;;19.60;99.90;;;;;;5033367;28;20036;-52
2023/06/03 04:23:43;;;;;;;13.68;9.35;;;19.60;99.90;;;;;;5032765;28;20131;-51
2023/06/03 04:26:11;;;;;;;14.07;9.57;;;19.50;99.90;;;;;;5031586;28;20596;-52
2023/06/03 04:28:39;;;;;;;12.35;9.93;;;19.50;99.90;;;;;;5032911;28;20492;-52
2023/06/03 04:31:05;;;;;;;16.80;9.95;;;19.50;99.90;;;;;;5033337;28;20030;-51
2023/06/03 04:33:31;;;;;;;13.25;9.45;;;19.50;99.90;;;;;;5033232;28;20465;-51
2023/06/03 04:35:57;;;;;;;14.45;8.65;;;19.60;99.90;;;;;;5033372;28;20044;-51
2023/06/03 04:38:23;;;;;;;12.50;8.52;;;19.50;99.90;;;;;;5033172;28;20038;-50
2023/06/03 04:40:48;;;;;;;13.13;9.65;;;19.50;99.90;;;;;;4982080;28;20077;-51
2023/06/03 04:43:22;;;;;;;12.73;9.85;;;19.50;99.90;;;;;;5031093;28;20133;-52
2023/06/03 04:59:52;;;;;;;14.00;8.88;;;19.60;99.90;;;;;;5110901;27;20425;-52
2023/06/03 05:02:20;;;;;;;12.07;9.25;;;20.50;99.90;;;;;;5111378;28;20111;-53
2023/06/03 05:04:46;;;;;;;13.60;9.75;;;20.50;99.90;;;;;;5110810;28;20024;-51
2023/06/03 05:07:13;;;;;;;12.13;9.02;;;20.50;99.90;;;;;;5110614;28;20122;-51
2023/06/03 05:09:39;;;;;;;13.70;9.63;;;20.50;99.90;;;;;;5110847;28;20039;-51
2023/06/03 05:12:06;;;;;;;13.98;9.95;;;20.50;99.90;;;;;;5110990;28;20107;-53
2023/06/03 05:14:32;;;;;;;12.45;9.20;;;20.50;99.90;;;;;;5092043;28;20039;-51
2023/06/03 05:16:58;;;;;;;13.52;8.93;;;20.50;99.90;;;;;;5110526;28;20081;-53
2023/06/03 05:19:24;;;;;;;12.65;9.88;;;20.60;99.90;;;;;;5110361;28;20028;-51
2023/06/03 05:21:49;;;;;;;16.63;8.70;;;20.60;99.90;;;;;;5110871;28;20028;-51
2023/06/03 05:24:15;;;;;;;13.30;10.10;;;20.40;99.90;;;;;;5110332;28;20387;-51
2023/06/03 05:26:41;;;;;;;12.30;9.07;;;20.50;99.90;;;;;;5110732;28;20451;-53
2023/06/03 05:29:07;;;;;;;11.70;8.80;;;20.50;99.90;;;;;;5110322;28;20031;-51
2023/06/03 05:31:32;;;;;;;13.13;8.80;;;20.60;99.90;;;;;;5110365;28;20023;-53
2023/06/03 05:33:58;;;;;;;17.67;10.75;;;20.50;99.90;;;;;;5091480;28;20039;-52
2023/06/03 05:36:26;;;;;;;12.35;8.93;;;20.40;99.90;;;;;;5110208;28;20036;-51
2023/06/03 05:38:52;;;;;;;12.68;8.77;;;20.30;99.90;;;;;;5110304;28;20039;-52
2023/06/03 05:41:18;;;;;;;11.52;9.23;;;20.40;99.90;;;;;;5109987;28;20027;-51
2023/06/03 05:43:43;;;;;;;14.60;9.60;;;20.50;99.90;;;;;;5091347;28;20040;-53
2023/06/03 05:46:09;;;;;;;16.40;9.85;;;20.50;99.90;;;;;;5110283;28;20078;-51
2023/06/03 05:48:35;;;;;;;15.55;10.30;;;20.60;99.90;;;;;;5109843;28;20032;-51
2023/06/03 05:51:01;;;;;;;15.13;10.65;;;20.70;99.90;;;;;;5091179;28;20058;-52
2023/06/03 05:53:27;;;;;;;13.15;10.20;;;20.70;99.90;;;;;;5109994;28;20024;-51
2023/06/03 05:55:53;;;;;;;15.88;11.35;;;20.70;99.90;;;;;;5107941;28;20165;-53
2023/06/03 05:58:20;;;;;;;14.80;10.70;;;20.60;99.90;;;;;;5090782;28;20043;-52
2023/06/03 06:00:47;;;;;;;14.55;10.90;;;20.70;99.90;;;;;;5096837;28;20028;-51
2023/06/03 06:03:13;;;;;;;16.88;10.75;;;20.70;99.90;;;;;;5096633;28;20035;-51
2023/06/03 06:05:40;;;;;;;17.63;9.27;;;20.70;99.90;;;;;;5096158;28;20090;-51
2023/06/03 06:08:05;;;;;;;15.43;10.00;;;20.80;99.90;;;;;;5095951;28;20028;-52
2023/06/03 06:10:31;;;;;;;12.90;9.38;;;20.90;99.90;;;;;;5095987;28;20031;-51
2023/06/03 06:12:57;;;;;;;12.20;9.32;;;20.80;99.90;;;;;;5095936;28;20024;-51
2023/06/03 06:15:23;;;;;;;13.55;9.50;;;20.60;99.90;;;;;;5077123;28;20123;-52
2023/06/03 06:17:48;;;;;;;10.85;8.82;;;20.50;99.90;;;;;;5095674;28;20026;-52
2023/06/03 06:20:14;;;;;;;14.38;8.50;;;20.50;99.90;;;;;;5095842;28;20027;-53
2023/06/03 06:22:40;;;;;;;14.80;9.38;;;20.20;99.90;;;;;;5095721;28;20035;-51
2023/06/03 06:25:08;;;;;;;13.63;9.38;;;20.30;99.90;;;;;;5095614;28;20016;-50
2023/06/03 06:27:34;;;;;;;18.08;11.10;;;20.20;99.90;;;;;;5076992;28;20047;-52
2023/06/03 06:30:00;;;;;;;15.82;10.85;;;20.20;99.90;;;;;;5076402;28;20036;-51
2023/06/03 06:32:26;;;;;;;18.98;12.55;;;20.40;99.90;;;;;;5010697;28;20119;-52
2023/06/03 06:34:52;;;;;;;15.68;11.35;;;20.40;99.90;;;;;;5060067;28;20536;-51
2023/06/03 06:37:19;;;;;;;18.30;13.02;;;20.50;99.90;;;;;;5095730;28;20028;-53
2023/06/03 06:39:51;;;;;;;20.45;13.35;;;20.60;99.90;;;;;;5095811;28;20032;-53
2023/06/03 06:42:33;;;;;;;19.67;13.23;;;20.70;99.90;;;;;;5095745;28;20032;-51
2023/06/03 06:45:08;;;;;;;19.02;12.38;;;20.80;99.90;;;;;;5095594;28;20028;-52
2023/06/03 06:47:36;;;;;;;18.15;12.75;;;20.90;99.90;;;;;;5095232;28;21154;-52
2023/06/03 06:50:07;;;;;;;19.27;13.23;;;20.80;99.90;;;;;;5095271;28;20039;-52
2023/06/03 06:52:34;;;;;;;16.40;11.05;;;20.90;99.90;;;;;;5095241;28;20036;-52
2023/06/03 06:55:01;;;;;;;20.92;13.93;;;20.90;99.90;;;;;;5095208;28;20077;-53
2023/06/03 06:57:28;;;;;;;19.55;13.15;;;21.10;99.90;;;;;;5095137;28;20031;-53
2023/06/03 06:59:54;;;;;;;20.83;13.40;;;21.30;99.90;;;;;;5095090;28;20085;-53
2023/06/03 07:02:21;;;;;;;21.08;14.68;;;21.30;99.90;;;;;;5094952;28;20020;-50
2023/06/03 07:04:51;;;;;;;20.58;14.95;;;21.50;99.90;;;;;;5076126;28;20040;-53
2023/06/03 07:07:17;;;;;;;18.50;12.32;;;21.70;99.90;;;;;;5095034;28;20030;-53
2023/06/03 07:09:43;;;;;;;20.95;13.68;;;21.50;99.90;;;;;;5094665;28;20105;-53
2023/06/03 07:12:09;;;;;;;17.63;12.93;;;21.50;99.90;;;;;;5093970;28;20150;-52
2023/06/03 07:14:36;;;;;;;17.27;12.95;;;21.50;99.90;;;;;;5094729;28;20044;-53
2023/06/03 07:17:02;;;;;;;20.05;14.07;;;21.60;99.90;;;;;;5087468;28;20035;-53
2023/06/03 07:19:36;;;;;;;18.33;13.60;;;21.80;99.90;;;;;;5084296;28;20032;-51
2023/06/03 07:22:04;;;;;;;16.98;13.13;;;21.80;99.90;;;;;;5088476;28;20024;-52
2023/06/03 07:24:33;;;;;;;19.13;12.15;;;21.80;99.90;;;;;;5070008;28;20052;-51
2023/06/03 07:27:00;;;;;;;17.30;12.15;;;21.90;99.90;;;;;;5091930;28;20107;-53
2023/06/03 07:29:31;;;;;;;16.40;12.50;;;21.70;99.90;;;;;;5088398;28;20074;-53
2023/06/03 07:31:57;;;;;;;16.38;12.30;;;21.90;99.90;;;;;;5081416;28;20021;-52
2023/06/03 07:34:23;;;;;;;19.73;13.82;;;21.90;99.90;;;;;;5064051;28;20032;-52
2023/06/03 07:36:57;;;;;;;17.85;13.05;;;21.90;99.90;;;;;;5081425;28;20107;-52
2023/06/03 07:39:23;;;;;;;17.30;13.27;;;22.00;99.90;;;;;;5070573;28;20139;-53
2023/06/03 07:41:51;;;;;;;18.02;13.40;;;22.00;99.90;;;;;;5069252;28;20522;-57
2023/06/03 07:44:32;;;;;;;16.27;11.82;;;22.30;99.90;;;;;;5085432;28;20024;-53
2023/06/03 07:46:58;;;;;;;17.02;12.27;;;22.30;99.90;;;;;;5087267;28;20032;-52
2023/06/03 07:49:24;;;;;;;17.42;12.82;;;22.30;99.90;;;;;;5082901;28;20511;-55
2023/06/03 07:51:51;;;;;;;20.55;13.43;;;22.20;99.90;;;;;;5087383;28;20028;-52
2023/06/03 07:54:17;;;;;;;17.20;11.98;;;22.20;99.90;;;;;;5084566;28;20020;-55
2023/06/03 07:56:44;;;;;;;17.30;11.95;;;22.30;99.90;;;;;;5080834;28;20054;-51
2023/06/03 07:59:13;;;;;;;17.92;12.40;;;22.30;99.90;;;;;;5085728;28;20395;-53
2023/06/03 08:01:39;;;;;;;15.27;12.00;;;22.30;99.90;;;;;;5084969;28;20028;-52
2023/06/03 08:04:34;;;;;;;13.88;11.45;;;22.20;99.90;;;;;;5080583;28;20059;-52
2023/06/03 08:07:02;;;;;;;16.42;12.20;;;22.10;99.90;;;;;;5080570;28;20046;-56
2023/06/03 08:09:34;;;;;;;16.27;12.18;;;22.10;99.90;;;;;;5090001;28;20036;-53
2023/06/03 08:12:02;;;;;;;17.20;11.68;;;22.20;99.90;;;;;;5073936;28;20479;-55
2023/06/03 08:14:30;;;;;;;16.63;11.90;;;22.30;99.90;;;;;;5063969;28;20380;-54
2023/06/03 08:17:03;;;;;;;17.48;12.65;;;22.30;99.90;;;;;;5063169;28;20077;-55
2023/06/03 08:19:29;;;;;;;18.60;11.43;;;22.30;99.90;;;;;;5025858;28;20039;-55
2023/06/03 08:21:56;;;;;;;15.07;10.77;;;22.20;99.90;;;;;;5033711;28;20122;-54
2023/06/03 08:24:22;;;;;;;16.00;11.65;;;22.20;99.90;;;;;;5042611;28;20037;-55
2023/06/03 08:26:48;;;;;;;14.98;11.40;;;22.00;99.90;;;;;;5010230;28;20038;-52
2023/06/03 08:29:14;;;;;;;17.95;11.82;;;22.10;99.90;;;;;;4990368;28;20042;-55
2023/06/03 08:31:40;;;;;;;16.30;11.32;;;22.10;99.90;;;;;;4975165;28;20094;-55
2023/06/03 08:34:06;;;;;;;17.63;11.43;;;22.20;99.90;;;;;;4990493;28;20052;-53
2023/06/03 08:36:33;;;;;;;15.73;10.65;;;22.30;99.90;;;;;;4940962;28;20038;-54
2023/06/03 08:38:59;;;;;;;18.45;11.07;;;22.10;99.90;;;;;;4990496;28;20039;-55
2023/06/03 08:41:27;;;;;;;15.70;11.25;;;21.90;99.90;;;;;;4974525;28;20528;-53
2023/06/03 08:44:08;;;;;;;12.98;9.90;;;21.80;99.90;;;;;;4990604;28;20044;-53
2023/06/03 08:46:53;;;;;;;14.00;10.68;;;21.60;99.90;;;;;;4995779;28;20045;-52
2023/06/03 08:49:40;;;;;;;18.17;11.23;;;21.30;99.90;;;;;;5009289;28;20060;-54
2023/06/03 08:52:08;;;;;;;17.05;11.18;;;21.50;99.90;;;;;;4985329;28;20043;-53
2023/06/03 08:54:37;;;;;;;17.30;10.40;;;21.40;99.90;;;;;;4990016;28;20050;-53
2023/06/03 08:57:08;;;;;;;12.48;9.43;;;21.40;99.90;;;;;;4999425;28;20130;-52
2023/06/03 08:59:39;;;;;;;14.88;10.27;;;21.20;99.90;;;;;;5047396;28;20385;-56
2023/06/03 09:02:08;;;;;;;16.58;10.77;;;21.10;99.90;;;;;;5046362;28;20044;-58
2023/06/03 09:04:35;;;;;;;18.58;11.70;;;21.30;99.90;;;;;;4972805;28;20077;-53
2023/06/03 09:07:03;;;;;;;12.68;9.27;;;21.30;99.90;;;;;;4982842;28;20128;-51
2023/06/03 09:09:30;;;;;;;15.20;9.57;;;21.30;99.90;;;;;;5009845;28;20041;-56
2023/06/03 09:11:58;;;;;;;14.13;9.30;;;21.40;99.90;;;;;;5030122;28;20037;-54
2023/06/03 09:14:25;;;;;;;10.90;8.20;;;21.40;99.90;;;;;;5005531;28;20053;-53
2023/06/03 09:16:52;;;;;;;10.88;8.60;;;21.30;99.90;;;;;;5008643;28;20045;-53
2023/06/03 09:19:19;;;;;;;11.38;7.93;;;21.40;99.90;;;;;;5008607;28;20045;-52
2023/06/03 09:21:46;;;;;;;10.93;8.55;;;21.50;99.90;;;;;;5008099;28;20046;-52
2023/06/03 09:24:13;;;;;;;15.45;9.82;;;21.60;99.90;;;;;;5017518;28;20477;-57
2023/06/03 09:26:39;;;;;;;12.23;8.23;;;21.80;99.90;;;;;;5028713;28;20116;-53
2023/06/03 09:29:06;;;;;;;12.10;8.20;;;21.60;99.90;;;;;;5012931;28;20033;-52
2023/06/03 09:31:32;;;;;;;12.30;7.82;;;21.80;99.90;;;;;;5028541;28;20481;-52
2023/06/03 09:33:58;;;;;;;12.55;9.02;;;21.80;99.90;;;;;;5029800;28;20036;-54
2023/06/03 09:36:25;;;;;;;12.60;8.68;;;21.90;99.90;;;;;;5064931;28;20044;-53
2023/06/03 09:38:55;;;;;;;13.23;8.80;;;22.10;99.90;;;;;;5093010;28;20035;-51
2023/06/03 09:41:25;;;;;;;11.25;9.45;;;22.50;99.90;;;;;;5076052;28;20032;-51
2023/06/03 09:43:57;;;;;;;13.43;8.85;;;;;;;;;;5070705;28;20032;-51
2023/06/03 09:46:25;;;;;;;12.20;8.98;;;23.50;99.90;;;;;;5092818;28;20074;-51
2023/06/03 09:48:51;;;;;;;10.73;8.55;;;23.40;99.90;;;;;;5091555;28;20380;-52
2023/06/03 09:51:17;;;;;;;15.25;8.93;;;;;;;;;;5092414;28;20032;-51
2023/06/03 10:06:42;;;;;;;10.05;7.53;;;24.40;99.90;;;;;;5106699;27;20385;-52
2023/06/03 10:09:22;;;;;;;12.05;7.18;;;24.80;99.90;;;;;;5084868;28;20043;-52
2023/06/03 10:11:51;;;;;;;9.73;5.97;;;24.70;99.90;;;;;;5085300;28;20032;-55
2023/06/03 10:14:26;;;;;;;9.48;6.68;;;24.60;99.90;;;;;;5087519;28;20052;-53
2023/06/03 10:17:05;;;;;;;7.10;5.65;;;24.70;99.90;;;;;;5083426;28;20537;-53
2023/06/03 10:19:42;;;;;;;7.50;6.10;;;24.40;99.90;;;;;;5086566;28;20094;-52
2023/06/03 10:22:12;;;;;;;8.27;5.50;;;24.20;99.90;;;;;;5083668;28;20078;-53
2023/06/03 10:24:40;;;;;;;9.98;5.90;;;24.30;99.90;;;;;;5085933;28;20094;-53
2023/06/03 10:27:07;;;;;;;7.75;6.15;;;23.90;99.90;;;;;;5084011;28;20033;-53
2023/06/03 10:29:33;;;;;;;8.10;5.80;;;23.70;99.90;;;;;;5090981;28;20024;-53
2023/06/03 10:32:05;;;;;;;7.32;5.78;;;23.90;99.90;;;;;;5049219;28;20114;-53
2023/06/03 10:34:43;;;;;;;7.20;5.22;;;24.20;99.90;;;;;;5086609;28;20045;-52
2023/06/03 10:37:12;;;;;;;6.47;5.38;;;24.40;99.90;;;;;;5097160;28;20024;-51
2023/06/03 10:39:41;;;;;;;7.88;5.30;;;24.70;99.90;;;;;;5088731;28;20047;-52
2023/06/03 10:42:09;;;;;;;8.63;5.07;;;24.80;99.90;;;;;;5071249;28;20134;-52
2023/06/03 10:44:36;;;;;;;10.00;5.55;;;;;;;;;;5088326;28;20399;-52
2023/06/03 10:47:07;;;;;;;5.50;4.80;;;;;;;;;;5082562;28;20035;-53
2023/06/03 10:49:44;;;;;;;6.88;5.07;;;;;;;;;;5056319;28;20032;-52
2023/06/03 10:52:29;;;;;;;6.68;4.80;;;;;;;;;;5102276;28;20067;-52
2023/06/03 10:54:55;;;;;;;7.85;5.45;;;;;;;;;;5101810;28;20479;-53
2023/06/03 10:57:26;;;;;;;8.50;6.15;;;;;;;;;;5070716;28;20051;-52
2023/06/03 10:59:52;;;;;;;7.78;5.70;;;;;;;;;;5075548;28;20040;-53
2023/06/03 11:02:18;;;;;;;7.90;5.07;;;;;;;;;;5066145;28;20188;-52
2023/06/03 11:04:45;;;;;;;8.45;4.80;;;;;;;;;;5069867;28;20746;-52
2023/06/03 11:07:30;;;;;;;9.43;5.60;;;;;;;;;;5004128;28;20044;-52
2023/06/03 11:09:56;;;;;;;6.70;5.20;;;;;;;;;;5046741;28;20024;-52
2023/06/03 11:12:42;;;;;;;7.72;4.68;;;;;;;;;;5051051;28;20424;-52
2023/06/03 11:15:09;;;;;;;7.68;5.75;;;;;;;;;;5054781;28;20049;-53
2023/06/03 11:17:36;;;;;;;5.53;4.43;;;;;;;;;;5026074;28;20045;-52
2023/06/03 11:20:03;;;;;;;8.18;5.32;;;;;;;;;;4997948;28;20447;-52
2023/06/03 11:22:29;;;;;;;9.57;5.22;;;;;;;;;;5006844;28;20046;-53
2023/06/03 11:25:02;;;;;;;5.72;4.45;;;;;;;;;;4991852;28;20077;-53
2023/06/03 11:27:29;;;;;;;6.53;5.03;;;;;;;;;;4991296;28;20536;-52
2023/06/03 11:29:57;;;;;;;7.82;4.35;;;;;;;;;;4991360;28;20046;-53
2023/06/03 11:32:23;;;;;;;6.55;4.15;;;;;;;;;;4993166;28;20026;-53
2023/06/03 11:35:12;;;;;;;6.07;4.57;;;;;;;;;;5028234;28;20041;-52
2023/06/03 11:37:41;;;;;;;5.05;4.18;;;;;;;;;;4955387;28;20062;-52
2023/06/03 11:40:09;;;;;;;7.40;4.18;;;;;;;;;;4941762;28;20069;-52
2023/06/03 11:42:47;;;;;;;6.88;3.88;;;;;;;;;;4960220;28;20031;-53
2023/06/03 11:45:24;;;;;;;5.60;3.28;;;;;;;;;;4942464;28;20035;-52
2023/06/03 11:47:57;;;;;;;6.22;4.65;;;;;;;;;;4949491;28;20039;-52
2023/06/03 11:50:25;;;;;;;5.72;4.40;;;;;;;;;;4945055;28;20050;-52
2023/06/03 11:52:51;;;;;;;6.13;3.95;;;;;;;;;;4956914;28;20222;-52
2023/06/03 11:55:24;;;;;;;5.22;3.63;;;;;;;;;;4980401;28;20093;-53
2023/06/03 11:57:50;;;;;;;4.75;2.83;;;;;;;;;;4976364;28;20058;-52
2023/06/03 12:00:17;;;;;;;4.55;3.50;;;;;;;;;;4964619;28;20151;-52
2023/06/03 12:02:47;;;;;;;5.13;3.75;;;;;;;;;;4982500;28;20045;-52
2023/06/03 12:05:15;;;;;;;6.88;4.50;;;;;;;;;;4971876;28;20506;-52
2023/06/03 12:07:43;;;;;;;4.60;3.38;;;;;;;;;;4940182;29;20574;-53
2023/06/03 12:10:11;;;;;;;5.53;3.00;;;;;;;;;;4919355;29;20123;-53
2023/06/03 12:12:49;;;;;;;4.53;2.83;;;;;;;;;;4942572;29;20043;-52
2023/06/03 12:15:15;;;;;;;4.75;3.83;;;;;;;;;;4990938;28;20077;-52
2023/06/03 12:17:42;;;;;;;5.28;3.00;;;;;;;;;;5006872;28;20474;-53
2023/06/03 12:20:09;;;;;;;4.68;3.03;;;;;;;;;;4976717;28;20125;-52
2023/06/03 12:22:35;;;;;;;4.40;2.60;;;27.60;99.90;;;;;;5001545;28;20084;-52
2023/06/03 12:25:01;;;;;;;3.85;2.72;;;27.90;99.90;;;;;;5006134;28;20101;-54
2023/06/03 12:27:29;;;;;;;4.28;2.83;;;28.00;99.90;;;;;;4992193;28;20111;-52
2023/06/03 12:29:57;;;;;;;4.90;2.92;;;28.30;99.90;;;;;;5002445;28;20117;-52
2023/06/03 12:32:28;;;;;;;4.30;2.33;;;28.70;99.90;;;;;;5003072;28;20579;-52
2023/06/03 12:34:55;;;;;;;4.32;2.65;;;;;;;;;;5001821;28;20191;-52
2023/06/03 12:37:33;;;;;;;3.35;2.47;;;29.20;99.90;;;;;;5004840;28;20695;-52
2023/06/03 12:39:59;;;;;;;3.72;2.33;;;29.00;99.90;;;;;;5042847;28;20089;-52
2023/06/03 12:42:42;;;;;;;4.28;2.50;;;29.60;99.90;;;;;;5031245;28;20037;-53
2023/06/03 12:45:09;;;;;;;2.72;2.25;;;29.90;99.90;;;;;;5046177;28;20053;-53
2023/06/03 12:47:46;;;;;;;4.70;2.65;;;29.70;99.90;;;;;;4992666;28;20178;-52
2023/06/03 12:50:13;;;;;;;3.38;2.42;;;29.30;99.90;;;;;;4987330;28;20041;-52
2023/06/03 12:52:40;;;;;;;4.22;2.40;;;29.20;99.90;;;;;;5006474;28;20121;-52
2023/06/03 12:55:09;;;;;;;3.88;2.38;;;29.40;99.90;;;;;;5006422;28;20069;-52
2023/06/03 12:57:37;;;;;;;3.85;2.55;;;;;;;;;;5004009;28;20049;-52
2023/06/03 13:00:09;;;;;;;3.13;2.40;;;;;;;;;;5007439;28;20061;-53
2023/06/03 13:02:39;;;;;;;7.65;3.67;;;;;;;;;;4986063;28;20043;-51
2023/06/03 13:05:06;;;;;;;4.22;2.80;;;;;;;;;;5002766;28;20049;-52
2023/06/03 13:07:39;;;;;;;4.68;2.60;;;;;;;;;;5007469;28;20034;-53
2023/06/03 13:10:06;;;;;;;4.03;2.65;;;;;;;;;;4983598;28;20201;-53
2023/06/03 13:12:32;;;;;;;3.55;2.45;;;;;;;;;;4979796;28;20046;-54
2023/06/03 13:14:59;;;;;;;3.72;2.50;;;;;;;;;;4971417;28;20047;-52
2023/06/03 13:17:26;;;;;;;4.05;2.50;;;;;;;;;;4955207;28;20182;-52
2023/06/03 13:19:52;;;;;;;5.47;2.60;;;28.80;99.90;;;;;;4979402;28;20036;-53
2023/06/03 13:22:20;;;;;;;4.43;2.40;;;29.10;99.90;;;;;;5026018;28;20033;-53
2023/06/03 13:24:46;;;;;;;4.57;2.63;;;29.30;99.50;;;;;;5010294;28;20038;-53
2023/06/03 13:27:13;;;;;;;3.03;2.30;;;29.10;99.30;;;;;;5009217;28;20080;-52
2023/06/03 13:29:40;;;;;;;4.70;2.30;;;29.10;99.60;;;;;;5004811;28;20044;-52